Time;durP1;ratioP1;P1;durP2;ratioP2;P2;SDS_P1;SDS_P2;PMS_P1;PMS_P2;Temp;Humidity;BMP_temperature;BMP_pressure;BME280_temperature;BME280_humidity;BME280_pressure;Samples;Min_cycle;Max_cycle;Signal;HPM_P1;HPM_P2
2022/12/06 00:01:59;;;;;;;0.70;0.70;;;6.10;99.90;;;;;;5022114;28;20050;-80
2022/12/06 00:04:24;;;;;;;0.70;0.70;;;6.10;99.90;;;;;;5017655;27;20061;-80
2022/12/06 00:06:51;;;;;;;0.70;0.70;;;6.00;99.90;;;;;;5021673;27;20051;-80
2022/12/06 00:09:23;;;;;;;0.70;0.70;;;6.20;99.90;;;;;;5045081;27;20043;-80
2022/12/06 00:11:49;;;;;;;0.70;0.70;;;6.10;99.90;;;;;;5038912;27;20695;-80
2022/12/06 00:14:16;;;;;;;0.70;0.70;;;6.10;99.90;;;;;;5038456;27;20035;-80
2022/12/06 00:16:42;;;;;;;0.60;0.60;;;6.10;99.90;;;;;;5021003;27;20370;-80
2022/12/06 00:19:11;;;;;;;0.70;0.70;;;6.10;99.90;;;;;;5026514;27;20679;-80
2022/12/06 00:21:37;;;;;;;0.70;0.70;;;6.10;99.90;;;;;;5031729;27;20061;-80
2022/12/06 00:24:12;;;;;;;0.70;0.70;;;6.10;99.90;;;;;;4996444;27;20381;-80
2022/12/06 00:26:40;;;;;;;0.77;0.77;;;6.10;99.90;;;;;;5040708;27;20043;-81
2022/12/06 00:29:10;;;;;;;0.70;0.70;;;6.00;99.90;;;;;;5016254;28;20764;-80
2022/12/06 00:31:36;;;;;;;0.70;0.70;;;6.10;99.90;;;;;;5019348;27;20141;-81
2022/12/06 00:34:02;;;;;;;0.60;0.60;;;6.10;99.90;;;;;;5037517;27;20616;-80
2022/12/06 00:36:30;;;;;;;0.70;0.70;;;6.00;99.90;;;;;;5020218;28;20885;-80
2022/12/06 00:39:02;;;;;;;0.60;0.60;;;6.10;99.90;;;;;;5018297;28;20555;-80
2022/12/06 00:41:28;;;;;;;0.70;0.70;;;6.10;99.90;;;;;;5018275;28;20963;-81
2022/12/06 00:43:54;;;;;;;0.70;0.70;;;6.10;99.90;;;;;;5023227;28;20223;-81
2022/12/06 00:46:27;;;;;;;0.70;0.70;;;6.10;99.90;;;;;;5032588;28;20905;-80
2022/12/06 00:48:54;;;;;;;0.60;0.60;;;6.10;99.90;;;;;;5040921;28;20219;-80
2022/12/06 00:51:21;;;;;;;0.70;0.70;;;6.10;99.90;;;;;;5028148;28;20046;-81
2022/12/06 00:53:48;;;;;;;0.70;0.70;;;6.10;99.90;;;;;;5041166;28;20082;-81
2022/12/06 00:56:14;;;;;;;0.70;0.70;;;6.10;99.90;;;;;;5026849;28;20460;-80
2022/12/06 00:58:40;;;;;;;0.70;0.70;;;6.10;99.90;;;;;;5023454;27;20051;-80
2022/12/06 01:01:10;;;;;;;0.70;0.70;;;6.20;99.90;;;;;;4989938;28;20421;-81
2022/12/06 01:03:37;;;;;;;0.70;0.70;;;6.20;99.90;;;;;;5021452;28;20497;-80
2022/12/06 01:06:05;;;;;;;0.70;0.70;;;6.20;99.90;;;;;;5015649;27;20511;-80
2022/12/06 01:08:32;;;;;;;0.70;0.70;;;6.10;99.90;;;;;;5022123;27;20046;-80
2022/12/06 01:10:57;;;;;;;0.70;0.70;;;6.20;99.90;;;;;;5007632;27;20051;-80
2022/12/06 01:13:23;;;;;;;0.70;0.70;;;6.20;99.90;;;;;;5020817;27;20048;-80
2022/12/06 01:15:49;;;;;;;0.70;0.70;;;6.20;99.90;;;;;;5030342;27;20050;-80
2022/12/06 01:18:15;;;;;;;0.70;0.70;;;6.20;99.90;;;;;;5026276;27;20058;-80
2022/12/06 01:20:41;;;;;;;0.70;0.70;;;6.20;99.90;;;;;;5048482;27;20084;-80
2022/12/06 01:23:07;;;;;;;0.70;0.70;;;6.20;99.90;;;;;;5024126;27;20247;-80
2022/12/06 01:25:33;;;;;;;0.70;0.70;;;6.20;99.90;;;;;;5025746;27;20112;-80
2022/12/06 01:27:59;;;;;;;0.80;0.80;;;6.20;99.90;;;;;;5023111;27;20790;-80
2022/12/06 01:30:24;;;;;;;0.70;0.70;;;6.10;99.90;;;;;;5028326;27;20104;-81
2022/12/06 01:32:50;;;;;;;0.70;0.70;;;6.20;99.90;;;;;;5018087;27;20059;-80
2022/12/06 01:35:16;;;;;;;0.70;0.70;;;6.30;99.90;;;;;;5003409;27;20149;-80
2022/12/06 01:37:42;;;;;;;0.70;0.70;;;6.20;99.90;;;;;;5031719;27;20052;-81
2022/12/06 01:40:09;;;;;;;0.70;0.70;;;6.20;99.90;;;;;;5041176;27;20375;-80
2022/12/06 01:42:35;;;;;;;0.70;0.70;;;6.20;99.90;;;;;;5040594;27;20496;-80
2022/12/06 01:45:01;;;;;;;0.70;0.70;;;6.10;99.90;;;;;;5024111;27;20069;-80
2022/12/06 01:47:53;;;;;;;0.70;0.70;;;6.10;99.90;;;;;;5025020;27;20047;-80
2022/12/06 01:50:28;;;;;;;0.70;0.70;;;6.20;99.90;;;;;;5007521;27;20070;-80
2022/12/06 01:53:04;;;;;;;0.70;0.70;;;6.10;99.90;;;;;;5022192;27;20059;-80
2022/12/06 01:55:33;;;;;;;0.70;0.70;;;6.10;99.90;;;;;;5018192;27;20084;-80
2022/12/06 01:58:06;;;;;;;0.70;0.70;;;6.20;99.90;;;;;;5016928;27;20074;-80
2022/12/06 02:00:32;;;;;;;0.70;0.70;;;6.10;99.90;;;;;;5031911;27;20500;-80
2022/12/06 02:03:00;;;;;;;0.70;0.70;;;6.10;99.90;;;;;;5027748;27;20100;-80
2022/12/06 02:05:27;;;;;;;0.70;0.70;;;6.10;99.90;;;;;;5018654;27;20047;-80
2022/12/06 02:07:54;;;;;;;0.70;0.70;;;6.10;99.90;;;;;;5001335;27;20711;-80
2022/12/06 02:10:20;;;;;;;0.70;0.70;;;6.10;99.90;;;;;;5003398;27;20051;-80
2022/12/06 02:12:50;;;;;;;0.70;0.70;;;6.10;99.90;;;;;;5043677;27;20069;-80
2022/12/06 02:15:16;;;;;;;0.70;0.70;;;6.20;99.90;;;;;;5018355;27;20085;-80
2022/12/06 02:17:42;;;;;;;0.70;0.70;;;6.20;99.90;;;;;;5004815;27;20063;-80
2022/12/06 02:20:22;;;;;;;0.70;0.70;;;6.20;99.90;;;;;;5037244;27;20256;-80
2022/12/06 02:23:09;;;;;;;0.70;0.70;;;6.10;99.90;;;;;;5020663;27;20130;-80
2022/12/06 02:25:50;;;;;;;0.70;0.70;;;6.20;99.90;;;;;;5036342;27;20556;-80
2022/12/06 02:28:39;;;;;;;0.70;0.70;;;6.20;99.90;;;;;;5018137;27;20043;-80
2022/12/06 02:31:07;;;;;;;0.70;0.70;;;6.10;99.90;;;;;;5013826;27;20810;-80
2022/12/06 02:33:59;;;;;;;0.70;0.70;;;6.20;99.90;;;;;;5015274;27;20529;-80
2022/12/06 02:36:42;;;;;;;0.70;0.70;;;6.20;99.90;;;;;;4998084;27;20526;-80
2022/12/06 02:39:32;;;;;;;0.70;0.70;;;6.20;99.90;;;;;;5015994;27;20066;-80
2022/12/06 02:42:07;;;;;;;0.70;0.70;;;6.20;99.90;;;;;;5021650;27;20838;-80
2022/12/06 02:44:45;;;;;;;0.60;0.60;;;6.20;99.90;;;;;;5019238;27;21067;-81
2022/12/06 02:47:13;;;;;;;0.70;0.70;;;6.10;99.90;;;;;;5021821;27;20074;-81
2022/12/06 02:49:45;;;;;;;0.63;0.63;;;6.20;99.90;;;;;;5029763;27;20049;-81
2022/12/06 02:52:12;;;;;;;0.70;0.70;;;6.20;99.90;;;;;;5031247;27;20483;-81
2022/12/06 02:54:40;;;;;;;0.70;0.70;;;6.20;99.90;;;;;;5040815;27;20127;-81
2022/12/06 02:57:06;;;;;;;0.70;0.70;;;6.10;99.90;;;;;;5025902;27;20444;-81
2022/12/06 02:59:32;;;;;;;0.70;0.70;;;6.10;99.90;;;;;;5026214;27;20123;-81
2022/12/06 03:02:01;;;;;;;0.70;0.70;;;6.10;99.90;;;;;;5031381;27;20050;-81
2022/12/06 03:04:49;;;;;;;0.70;0.70;;;6.10;99.90;;;;;;5023527;27;20057;-81
2022/12/06 03:07:27;;;;;;;0.70;0.70;;;6.20;99.90;;;;;;5006774;27;20854;-81
2022/12/06 03:10:23;;;;;;;0.70;0.70;;;6.10;99.90;;;;;;5020286;27;20397;-81
2022/12/06 03:13:17;;;;;;;0.70;0.70;;;6.20;99.90;;;;;;5024311;27;20043;-81
2022/12/06 03:15:43;;;;;;;;;;;6.20;99.90;;;;;;4992191;27;20068;-81
2022/12/06 03:18:20;;;;;;;0.70;0.70;;;6.20;99.90;;;;;;5028248;27;20000;-81
2022/12/06 03:21:02;;;;;;;0.70;0.70;;;6.10;99.90;;;;;;5024922;27;20047;-83
2022/12/06 03:23:38;;;;;;;0.70;0.70;;;6.10;99.90;;;;;;5004693;27;20292;-82
2022/12/06 03:26:05;;;;;;;0.70;0.70;;;6.10;99.90;;;;;;4994884;27;20078;-82
2022/12/06 03:28:35;;;;;;;0.70;0.70;;;6.20;99.90;;;;;;5021403;27;20043;-82
2022/12/06 03:31:05;;;;;;;0.70;0.70;;;6.10;99.90;;;;;;5027090;27;20479;-82
2022/12/06 03:33:33;;;;;;;0.70;0.70;;;6.00;99.90;;;;;;5020807;27;20878;-82
2022/12/06 03:36:00;;;;;;;0.70;0.70;;;6.20;99.90;;;;;;5023411;27;20118;-82
2022/12/06 03:38:32;;;;;;;0.70;0.70;;;6.10;99.90;;;;;;5039314;27;21074;-82
2022/12/06 03:41:02;;;;;;;0.70;0.70;;;6.00;99.90;;;;;;5016458;27;20069;-82
2022/12/06 03:43:28;;;;;;;0.70;0.70;;;6.10;99.90;;;;;;5024990;27;20495;-82
2022/12/06 03:46:12;;;;;;;0.70;0.70;;;6.10;99.90;;;;;;5017009;27;21041;-82
2022/12/06 03:48:40;;;;;;;;;;;6.10;99.90;;;;;;5031201;27;20089;-82
2022/12/06 03:51:14;;;;;;;0.63;0.63;;;6.00;99.90;;;;;;5022883;27;19994;-82
2022/12/06 03:53:53;;;;;;;0.70;0.70;;;6.10;99.90;;;;;;5008228;27;20501;-82
2022/12/06 03:56:20;;;;;;;0.70;0.70;;;6.00;99.90;;;;;;5035495;27;20270;-82
2022/12/06 03:58:46;;;;;;;0.70;0.70;;;6.10;99.90;;;;;;5020534;27;20096;-82
2022/12/06 04:01:12;;;;;;;0.70;0.70;;;6.10;99.90;;;;;;5016005;27;20058;-82
2022/12/06 04:03:38;;;;;;;0.70;0.70;;;6.10;99.90;;;;;;5030982;27;20513;-82
2022/12/06 04:06:05;;;;;;;0.70;0.70;;;6.10;99.90;;;;;;5024017;27;20402;-82
2022/12/06 04:08:31;;;;;;;0.70;0.70;;;5.90;99.90;;;;;;5025315;27;20202;-82
2022/12/06 04:10:57;;;;;;;0.70;0.70;;;6.00;99.90;;;;;;5023671;28;20150;-82
2022/12/06 04:13:23;;;;;;;0.70;0.70;;;6.00;99.90;;;;;;5024621;27;20412;-82
2022/12/06 04:15:53;;;;;;;0.70;0.70;;;6.00;99.90;;;;;;5024861;27;20428;-82
2022/12/06 04:18:19;;;;;;;0.70;0.70;;;5.90;99.90;;;;;;4988981;27;20047;-82
2022/12/06 04:23:35;;;;;;;0.70;0.70;;;5.90;99.90;;;;;;5021155;27;20484;-82
2022/12/06 04:26:01;;;;;;;0.70;0.70;;;6.00;99.90;;;;;;5025295;28;20047;-82
2022/12/06 04:39:25;;;;;;;0.70;0.70;;;5.90;99.90;;;;;;5015227;27;20035;-81
2022/12/06 04:44:36;;;;;;;0.70;0.70;;;5.90;99.90;;;;;;5027570;28;20047;-82
2022/12/06 04:47:01;;;;;;;0.70;0.70;;;5.70;99.90;;;;;;5025707;28;20047;-81
2022/12/06 04:49:27;;;;;;;0.70;0.70;;;5.80;99.90;;;;;;5030199;28;21230;-82
2022/12/06 04:51:54;;;;;;;0.70;0.70;;;5.80;99.90;;;;;;5009809;28;20403;-82
2022/12/06 04:54:20;;;;;;;0.70;0.70;;;5.80;99.90;;;;;;5026461;28;20043;-82
2022/12/06 04:56:47;;;;;;;0.70;0.70;;;5.70;99.90;;;;;;5028341;28;20054;-82
2022/12/06 04:59:12;;;;;;;0.70;0.70;;;5.70;99.90;;;;;;5022636;28;20054;-81
2022/12/06 05:01:38;;;;;;;0.70;0.70;;;5.70;99.90;;;;;;5024386;28;20074;-82
2022/12/06 05:04:04;;;;;;;0.70;0.70;;;5.80;99.90;;;;;;5028906;28;20054;-81
2022/12/06 05:06:29;;;;;;;0.70;0.70;;;5.90;99.90;;;;;;5019100;28;20051;-81
2022/12/06 05:08:55;;;;;;;0.70;0.70;;;5.80;99.90;;;;;;5026767;28;20125;-82
2022/12/06 05:11:21;;;;;;;0.70;0.70;;;5.80;99.90;;;;;;5024695;28;20054;-81
2022/12/06 05:13:47;;;;;;;0.70;0.70;;;5.80;99.90;;;;;;5022580;28;20043;-81
2022/12/06 05:16:12;;;;;;;0.70;0.70;;;5.80;99.90;;;;;;4987280;28;20537;-81
2022/12/06 05:18:38;;;;;;;0.70;0.70;;;5.70;99.90;;;;;;5022458;28;20096;-81
2022/12/06 05:21:07;;;;;;;0.70;0.70;;;5.70;99.90;;;;;;5025902;28;20661;-82
2022/12/06 05:23:33;;;;;;;0.70;0.70;;;5.70;99.90;;;;;;5022539;28;20209;-82
2022/12/06 05:26:00;;;;;;;0.70;0.70;;;5.70;99.90;;;;;;5023928;28;20047;-82
2022/12/06 05:28:26;;;;;;;0.70;0.70;;;5.70;99.90;;;;;;5025836;28;20558;-81
2022/12/06 05:30:52;;;;;;;0.70;0.70;;;5.70;99.90;;;;;;5002479;28;20197;-82
2022/12/06 05:33:18;;;;;;;0.70;0.70;;;5.60;99.90;;;;;;5024212;28;20178;-82
2022/12/06 05:35:44;;;;;;;0.70;0.70;;;5.70;99.90;;;;;;5012546;28;20500;-81
2022/12/06 05:38:10;;;;;;;0.70;0.70;;;5.60;99.90;;;;;;5015981;28;20460;-81
2022/12/06 05:40:38;;;;;;;0.70;0.70;;;5.50;99.90;;;;;;5016622;28;20074;-81
2022/12/06 05:43:04;;;;;;;0.70;0.70;;;5.60;99.90;;;;;;5014926;28;20055;-82
2022/12/06 05:45:29;;;;;;;0.70;0.70;;;5.60;99.90;;;;;;5015002;28;20525;-81
2022/12/06 05:47:55;;;;;;;0.70;0.70;;;5.60;99.90;;;;;;5023608;28;20043;-82
2022/12/06 05:50:21;;;;;;;0.70;0.70;;;5.70;99.90;;;;;;4984125;28;20116;-81
2022/12/06 05:52:47;;;;;;;0.70;0.70;;;5.60;99.90;;;;;;5020534;27;20549;-81
2022/12/06 05:55:12;;;;;;;0.60;0.60;;;5.60;99.90;;;;;;5024873;27;20112;-81
2022/12/06 05:57:38;;;;;;;0.70;0.70;;;5.60;99.90;;;;;;5003682;27;20051;-82
2022/12/06 06:00:05;;;;;;;0.70;0.70;;;5.60;99.90;;;;;;5024814;27;20047;-81
2022/12/06 06:02:31;;;;;;;0.70;0.70;;;5.60;99.90;;;;;;5019702;27;20047;-81
2022/12/06 06:04:56;;;;;;;0.70;0.70;;;5.60;99.90;;;;;;5019111;27;20091;-81
2022/12/06 06:07:22;;;;;;;0.70;0.70;;;5.50;99.90;;;;;;5016517;27;20457;-82
2022/12/06 06:09:48;;;;;;;0.70;0.70;;;5.50;99.90;;;;;;5025340;27;20922;-81
2022/12/06 06:12:13;;;;;;;0.70;0.70;;;5.50;99.90;;;;;;5004263;27;20247;-81
2022/12/06 06:14:39;;;;;;;0.70;0.70;;;5.50;99.90;;;;;;5002881;27;20039;-82
2022/12/06 06:17:06;;;;;;;0.70;0.70;;;5.50;99.90;;;;;;5016577;27;20434;-81
2022/12/06 06:19:31;;;;;;;0.70;0.70;;;5.50;99.90;;;;;;4995909;27;20049;-81
2022/12/06 06:21:57;;;;;;;0.70;0.70;;;5.50;99.90;;;;;;5009927;27;20046;-81
2022/12/06 06:24:23;;;;;;;0.70;0.70;;;5.60;99.90;;;;;;5001586;27;20054;-81
2022/12/06 06:26:49;;;;;;;0.70;0.70;;;5.50;99.90;;;;;;5038562;27;20074;-82
2022/12/06 06:29:15;;;;;;;0.60;0.60;;;5.60;99.90;;;;;;5021167;27;20075;-81
2022/12/06 06:31:41;;;;;;;0.70;0.70;;;5.50;99.90;;;;;;5020232;27;20047;-81
2022/12/06 06:34:06;;;;;;;0.70;0.70;;;5.50;99.90;;;;;;5022900;27;20043;-81
2022/12/06 06:36:32;;;;;;;0.70;0.70;;;5.50;99.90;;;;;;5012533;27;20535;-81
2022/12/06 06:38:58;;;;;;;0.60;0.60;;;5.40;99.90;;;;;;5043035;27;20054;-81
2022/12/06 06:41:24;;;;;;;0.70;0.70;;;5.60;99.90;;;;;;5043432;27;20435;-81
2022/12/06 06:43:50;;;;;;;0.70;0.70;;;5.50;99.90;;;;;;5017586;27;20554;-81
2022/12/06 06:46:16;;;;;;;0.70;0.70;;;5.50;99.90;;;;;;5012496;27;20577;-81
2022/12/06 06:48:41;;;;;;;0.70;0.70;;;5.40;99.90;;;;;;5014121;27;20765;-81
2022/12/06 06:51:10;;;;;;;0.70;0.70;;;5.50;99.90;;;;;;4989477;27;20143;-81
2022/12/06 06:53:36;;;;;;;0.70;0.70;;;5.40;99.90;;;;;;5014758;27;20294;-81
2022/12/06 06:56:03;;;;;;;0.70;0.70;;;5.40;99.90;;;;;;5017097;27;20049;-81
2022/12/06 06:58:28;;;;;;;0.70;0.70;;;5.50;99.90;;;;;;5015016;27;20192;-81
2022/12/06 07:00:56;;;;;;;0.70;0.70;;;5.40;99.90;;;;;;5019683;27;20442;-82
2022/12/06 07:03:23;;;;;;;0.70;0.70;;;5.40;99.90;;;;;;5021987;27;20047;-81
2022/12/06 07:06:00;;;;;;;0.60;0.60;;;5.30;99.90;;;;;;5021721;27;20071;-81
2022/12/06 07:08:27;;;;;;;0.70;0.70;;;5.40;99.90;;;;;;5015562;27;20047;-81
2022/12/06 07:10:53;;;;;;;0.70;0.70;;;5.30;99.90;;;;;;5040540;27;20051;-82
2022/12/06 07:13:23;;;;;;;0.70;0.70;;;5.30;99.90;;;;;;4999369;27;21043;-82
2022/12/06 07:15:49;;;;;;;0.70;0.70;;;5.40;99.90;;;;;;5017713;27;20374;-81
2022/12/06 07:18:16;;;;;;;0.70;0.70;;;5.30;99.90;;;;;;5017724;27;20474;-81
2022/12/06 07:20:42;;;;;;;0.70;0.70;;;5.20;99.90;;;;;;5020935;27;20448;-82
2022/12/06 07:23:08;;;;;;;0.70;0.70;;;5.40;99.90;;;;;;5015986;27;20427;-82
2022/12/06 07:25:34;;;;;;;0.70;0.70;;;5.30;99.90;;;;;;5020445;27;20532;-81
2022/12/06 07:28:00;;;;;;;0.70;0.70;;;5.30;99.90;;;;;;5016983;27;20444;-81
2022/12/06 07:30:26;;;;;;;0.70;0.70;;;5.20;99.90;;;;;;5016856;28;20152;-80
2022/12/06 07:32:53;;;;;;;0.70;0.70;;;5.40;99.90;;;;;;5011705;27;20807;-81
2022/12/06 07:35:19;;;;;;;0.70;0.70;;;5.20;99.90;;;;;;5011453;28;20123;-81
2022/12/06 07:37:45;;;;;;;0.70;0.70;;;5.20;99.90;;;;;;5016323;28;20450;-83
2022/12/06 07:40:14;;;;;;;0.70;0.70;;;5.30;99.90;;;;;;5012166;28;20067;-80
2022/12/06 07:45:24;;;;;;;0.70;0.70;;;5.30;99.90;;;;;;5009523;28;20051;-80
2022/12/06 07:47:50;;;;;;;0.70;0.70;;;5.20;99.90;;;;;;5001955;28;20059;-82
2022/12/06 07:50:20;;;;;;;0.70;0.70;;;5.10;99.90;;;;;;5001565;28;20047;-82
2022/12/06 07:52:47;;;;;;;0.70;0.70;;;5.10;99.90;;;;;;5016188;28;20459;-83
2022/12/06 07:55:14;;;;;;;0.70;0.70;;;5.00;99.90;;;;;;5020542;28;20051;-82
2022/12/06 07:57:40;;;;;;;0.70;0.70;;;5.10;99.90;;;;;;5020285;28;20788;-80
2022/12/06 08:00:08;;;;;;;0.70;0.70;;;5.00;99.90;;;;;;5019163;28;20043;-80
2022/12/06 08:02:34;;;;;;;0.70;0.70;;;4.90;99.90;;;;;;4991315;28;20835;-81
2022/12/06 08:05:00;;;;;;;0.70;0.70;;;4.90;99.90;;;;;;5014610;28;20039;-81
2022/12/06 08:07:26;;;;;;;0.70;0.70;;;4.90;99.90;;;;;;5014124;28;20879;-81
2022/12/06 08:09:53;;;;;;;0.70;0.70;;;4.90;99.90;;;;;;5011452;28;20213;-82
2022/12/06 08:12:20;;;;;;;0.70;0.70;;;4.80;99.90;;;;;;5016952;28;20048;-81
2022/12/06 08:14:47;;;;;;;0.70;0.70;;;4.90;99.90;;;;;;5017000;28;20074;-83
2022/12/06 08:17:13;;;;;;;0.70;0.70;;;4.90;99.90;;;;;;5017891;28;20039;-82
2022/12/06 08:19:39;;;;;;;0.70;0.70;;;4.90;99.90;;;;;;4998676;28;20090;-83
2022/12/06 08:22:05;;;;;;;0.70;0.70;;;5.10;99.90;;;;;;4996632;28;20043;-82
2022/12/06 08:24:31;;;;;;;0.70;0.70;;;5.00;99.90;;;;;;5016159;28;20106;-82
2022/12/06 08:26:58;;;;;;;0.70;0.70;;;5.00;99.90;;;;;;5008148;28;20071;-81
2022/12/06 08:29:24;;;;;;;0.70;0.70;;;4.90;99.90;;;;;;5015541;28;20043;-80
2022/12/06 08:31:50;;;;;;;0.70;0.70;;;5.00;99.90;;;;;;5015546;28;20093;-81
2022/12/06 08:34:15;;;;;;;0.70;0.70;;;4.80;99.90;;;;;;5017592;28;20327;-81
2022/12/06 08:36:41;;;;;;;0.70;0.70;;;4.90;99.90;;;;;;5014646;28;20354;-81
2022/12/06 08:39:10;;;;;;;0.68;0.68;;;4.70;99.90;;;;;;5015846;28;20327;-82
2022/12/06 08:41:54;;;;;;;0.70;0.70;;;4.60;99.90;;;;;;5016987;28;20444;-82
2022/12/06 08:44:20;;;;;;;0.70;0.70;;;4.50;99.90;;;;;;4999896;28;20059;-82
2022/12/06 08:46:46;;;;;;;0.70;0.70;;;4.40;99.90;;;;;;5014757;28;20047;-80
2022/12/06 08:49:14;;;;;;;0.70;0.70;;;4.50;99.90;;;;;;5011447;28;20716;-81
2022/12/06 08:51:40;;;;;;;0.70;0.70;;;4.70;99.90;;;;;;5017458;28;20575;-83
2022/12/06 08:54:08;;;;;;;0.70;0.70;;;4.70;99.90;;;;;;5008235;28;20043;-83
2022/12/06 08:56:35;;;;;;;0.70;0.70;;;4.80;99.90;;;;;;5016401;28;21008;-81
2022/12/06 08:59:01;;;;;;;0.70;0.70;;;4.90;99.90;;;;;;4995338;28;20046;-82
2022/12/06 09:01:30;;;;;;;0.70;0.70;;;5.00;99.90;;;;;;5014553;28;20075;-82
2022/12/06 09:03:58;;;;;;;0.70;0.70;;;5.20;99.90;;;;;;5015988;28;20804;-82
2022/12/06 09:06:24;;;;;;;0.70;0.70;;;5.20;99.90;;;;;;4996442;28;20059;-81
2022/12/06 09:08:51;;;;;;;0.70;0.70;;;5.30;99.90;;;;;;5012529;28;20420;-81
2022/12/06 09:11:18;;;;;;;0.70;0.70;;;5.40;99.90;;;;;;5009678;28;20242;-81
2022/12/06 09:13:44;;;;;;;0.80;0.80;;;5.50;99.90;;;;;;4997360;28;20286;-81
2022/12/06 09:16:16;;;;;;;0.77;0.77;;;5.60;99.90;;;;;;4995233;28;20055;-81
2022/12/06 09:18:43;;;;;;;0.70;0.70;;;5.70;99.90;;;;;;5011225;28;20055;-81
2022/12/06 09:21:20;;;;;;;0.70;0.70;;;5.60;99.90;;;;;;5010623;28;20054;-82
2022/12/06 09:23:46;;;;;;;0.70;0.70;;;5.70;99.90;;;;;;5013106;28;20905;-82
2022/12/06 09:26:12;;;;;;;0.70;0.70;;;5.80;99.90;;;;;;5015531;28;20058;-79
2022/12/06 09:28:40;;;;;;;0.70;0.70;;;5.90;99.90;;;;;;5021284;28;20432;-81
2022/12/06 09:31:07;;;;;;;0.70;0.70;;;5.90;99.90;;;;;;4997279;28;20832;-79
2022/12/06 09:33:34;;;;;;;0.60;0.60;;;6.00;99.90;;;;;;5020049;28;20052;-80
2022/12/06 09:36:05;;;;;;;0.77;0.77;;;6.00;99.90;;;;;;5018841;28;20492;-82
2022/12/06 09:38:34;;;;;;;0.70;0.70;;;6.10;99.90;;;;;;5033169;27;20153;-81
2022/12/06 09:41:18;;;;;;;0.70;0.70;;;6.10;99.90;;;;;;5019445;28;20499;-79
2022/12/06 09:44:13;;;;;;;;;;;6.10;99.90;;;;;;5017838;28;20078;-80
2022/12/06 09:46:42;;;;;;;0.70;0.70;;;6.20;99.90;;;;;;5005320;28;19930;-81
2022/12/06 09:49:07;;;;;;;0.70;0.70;;;6.30;99.90;;;;;;5015732;28;20825;-80
2022/12/06 09:52:18;;;;;;;0.70;0.70;;;6.40;99.90;;;;;;4997898;28;20066;-81
2022/12/06 09:55:42;;;;;;;0.70;0.70;;;6.40;99.90;;;;;;5020301;28;20376;-79
2022/12/06 10:01:56;;;;;;;0.70;0.70;;;6.80;99.90;;;;;;4936129;28;20389;-80
2022/12/06 10:04:46;;;;;;;0.70;0.70;;;7.10;99.90;;;;;;5013699;28;20439;-81
2022/12/06 10:07:44;;;;;;;0.70;0.70;;;6.80;99.90;;;;;;5017249;28;20622;-82
2022/12/06 10:10:29;;;;;;;0.70;0.70;;;6.70;99.90;;;;;;5019990;28;20110;-81
2022/12/06 10:13:07;;;;;;;0.70;0.70;;;6.70;99.90;;;;;;5020431;28;20085;-80
2022/12/06 10:15:49;;;;;;;0.70;0.70;;;6.70;99.90;;;;;;5015036;28;20062;-81
2022/12/06 10:18:20;;;;;;;0.70;0.70;;;6.80;99.90;;;;;;5022260;28;20433;-80
2022/12/06 10:20:50;;;;;;;0.70;0.70;;;6.70;99.90;;;;;;5021682;28;20057;-81
2022/12/06 10:23:34;;;;;;;0.70;0.70;;;6.80;99.90;;;;;;5020458;28;20051;-81
2022/12/06 10:26:09;;;;;;;;;;;6.60;99.90;;;;;;5014979;28;20114;-81
2022/12/06 10:29:06;;;;;;;0.70;0.70;;;6.70;99.90;;;;;;5016183;28;20359;-81
2022/12/06 10:31:58;;;;;;;0.70;0.70;;;6.70;99.90;;;;;;5015437;28;20066;-81
2022/12/06 10:34:57;;;;;;;0.70;0.70;;;6.70;99.90;;;;;;5008639;28;20052;-81
2022/12/06 10:38:19;;;;;;;0.70;0.70;;;6.70;99.90;;;;;;4950987;28;20982;-81
2022/12/06 10:40:49;;;;;;;0.70;0.70;;;6.60;99.90;;;;;;4924940;28;20144;-81
2022/12/06 10:43:35;;;;;;;0.70;0.70;;;6.50;99.90;;;;;;4935407;28;20548;-81
2022/12/06 10:49:40;;;;;;;0.70;0.70;;;6.40;99.90;;;;;;5013593;28;20531;-81
2022/12/06 10:52:54;;;;;;;0.70;0.70;;;6.30;99.90;;;;;;4903205;28;20058;-82
2022/12/06 10:55:57;;;;;;;0.70;0.70;;;6.50;99.90;;;;;;4986875;28;20512;-81
2022/12/06 10:59:09;;;;;;;0.70;0.70;;;6.70;99.90;;;;;;4970818;28;21037;-81
2022/12/06 11:01:40;;;;;;;0.70;0.70;;;6.90;99.90;;;;;;5009687;28;20078;-80
2022/12/06 11:04:27;;;;;;;0.75;0.75;;;7.00;99.90;;;;;;5013662;28;20047;-80
2022/12/06 11:07:10;;;;;;;0.70;0.70;;;7.10;99.90;;;;;;5016150;28;21015;-82
2022/12/06 11:09:40;;;;;;;0.80;0.80;;;7.10;99.90;;;;;;5012142;28;20575;-81
2022/12/06 11:12:29;;;;;;;0.70;0.70;;;7.30;99.90;;;;;;5012358;28;20089;-81
2022/12/06 11:15:18;;;;;;;0.70;0.70;;;7.50;99.90;;;;;;5020337;28;20051;-81
2022/12/06 11:18:09;;;;;;;0.70;0.70;;;7.60;99.90;;;;;;4991071;28;20526;-82
2022/12/06 11:20:57;;;;;;;0.80;0.80;;;7.50;99.90;;;;;;5010598;28;20047;-80
2022/12/06 11:23:44;;;;;;;0.70;0.70;;;7.50;99.90;;;;;;5017679;28;20043;-81
2022/12/06 11:26:37;;;;;;;0.70;0.70;;;7.40;99.90;;;;;;5014671;28;20039;-81
2022/12/06 11:29:08;;;;;;;0.70;0.70;;;7.40;99.90;;;;;;4998938;28;20055;-82
2022/12/06 11:31:50;;;;;;;0.70;0.70;;;7.50;99.90;;;;;;5017807;28;20254;-81
2022/12/06 11:34:28;;;;;;;0.70;0.70;;;7.50;99.90;;;;;;5010203;28;20082;-82
2022/12/06 11:36:55;;;;;;;0.70;0.70;;;7.70;99.90;;;;;;5016413;28;20055;-81
2022/12/06 11:39:22;;;;;;;0.70;0.70;;;7.70;99.90;;;;;;4998361;28;20187;-82
2022/12/06 11:41:55;;;;;;;0.80;0.80;;;7.80;99.90;;;;;;5016101;28;20051;-81
2022/12/06 11:44:25;;;;;;;0.70;0.70;;;7.90;99.90;;;;;;5014945;28;20074;-81
2022/12/06 11:47:00;;;;;;;0.65;0.65;;;8.00;99.90;;;;;;5015667;28;20130;-81
2022/12/06 11:49:34;;;;;;;0.70;0.70;;;8.00;99.90;;;;;;5018180;28;20369;-82
2022/12/06 11:52:09;;;;;;;0.70;0.70;;;8.20;99.90;;;;;;5007416;28;20226;-82
2022/12/06 11:54:45;;;;;;;0.60;0.60;;;8.00;99.90;;;;;;5016733;28;20228;-80
2022/12/06 11:57:41;;;;;;;0.70;0.70;;;7.80;99.90;;;;;;5013581;28;20428;-83
2022/12/06 12:00:12;;;;;;;0.60;0.60;;;7.60;99.90;;;;;;4984782;28;20120;-81
2022/12/06 12:02:38;;;;;;;0.70;0.70;;;7.50;99.90;;;;;;5016759;28;20054;-81
2022/12/06 12:05:12;;;;;;;0.70;0.70;;;7.40;99.90;;;;;;5016297;28;20375;-81
2022/12/06 12:07:39;;;;;;;;;;;7.40;99.90;;;;;;5021633;28;20350;-81
2022/12/06 12:10:29;;;;;;;0.70;0.70;;;7.50;99.90;;;;;;5011977;28;20631;-82
2022/12/06 12:15:51;;;;;;;0.70;0.70;;;7.50;99.90;;;;;;5015294;28;20436;-82
2022/12/06 12:18:27;;;;;;;0.70;0.70;;;7.50;99.90;;;;;;5015953;28;20902;-81
2022/12/06 12:20:55;;;;;;;0.70;0.70;;;7.50;99.90;;;;;;5015413;28;20078;-81
2022/12/06 12:23:43;;;;;;;0.70;0.70;;;7.50;99.90;;;;;;5015883;28;20181;-81
2022/12/06 12:26:18;;;;;;;0.73;0.73;;;7.80;99.90;;;;;;5003444;28;20051;-81
2022/12/06 12:29:11;;;;;;;0.80;0.80;;;7.90;99.90;;;;;;5014909;28;20083;-80
2022/12/06 12:31:52;;;;;;;0.70;0.70;;;8.10;99.90;;;;;;5014966;28;20075;-82
2022/12/06 12:34:29;;;;;;;0.70;0.70;;;8.00;99.90;;;;;;4998960;28;20554;-81
2022/12/06 12:36:59;;;;;;;0.70;0.70;;;8.10;99.90;;;;;;5013960;28;20446;-80
2022/12/06 12:39:35;;;;;;;0.68;0.68;;;8.10;99.90;;;;;;5019405;28;20047;-82
2022/12/06 12:42:01;;;;;;;0.60;0.60;;;8.10;99.90;;;;;;5000415;28;20413;-81
2022/12/06 12:44:38;;;;;;;0.70;0.70;;;8.00;99.90;;;;;;5010703;28;20130;-80
2022/12/06 12:47:17;;;;;;;0.60;0.60;;;7.90;99.90;;;;;;5012860;28;20095;-79
2022/12/06 12:49:56;;;;;;;0.70;0.70;;;7.90;99.90;;;;;;5015590;28;20915;-80
2022/12/06 12:52:41;;;;;;;0.70;0.70;;;7.80;99.90;;;;;;5015564;28;20947;-82
2022/12/06 12:55:13;;;;;;;0.70;0.70;;;7.80;99.90;;;;;;5011584;28;20614;-80
2022/12/06 12:57:45;;;;;;;0.70;0.70;;;7.80;99.90;;;;;;5021577;28;20595;-81
2022/12/06 13:00:36;;;;;;;0.70;0.70;;;7.80;99.90;;;;;;5021190;28;20051;-82
2022/12/06 13:03:15;;;;;;;0.70;0.70;;;7.70;99.90;;;;;;5027494;28;20404;-81
2022/12/06 13:05:42;;;;;;;0.70;0.70;;;7.70;99.90;;;;;;5017258;28;20394;-81
2022/12/06 13:08:20;;;;;;;0.70;0.70;;;7.70;99.90;;;;;;5020481;28;20505;-81
2022/12/06 13:10:48;;;;;;;0.70;0.70;;;7.60;99.90;;;;;;5017715;28;20564;-83
2022/12/06 13:13:39;;;;;;;0.70;0.70;;;7.60;99.90;;;;;;5021856;28;20644;-82
2022/12/06 13:16:11;;;;;;;0.63;0.63;;;7.60;99.90;;;;;;5004267;28;20414;-82
2022/12/06 13:18:45;;;;;;;0.70;0.70;;;7.60;99.90;;;;;;5019753;28;20043;-82
2022/12/06 13:21:30;;;;;;;0.75;0.75;;;7.60;99.90;;;;;;4996753;28;20089;-83
2022/12/06 13:24:10;;;;;;;0.80;0.80;;;7.40;99.90;;;;;;5020035;28;20586;-82
2022/12/06 13:26:44;;;;;;;0.70;0.70;;;7.60;99.90;;;;;;5014902;28;20724;-82
2022/12/06 13:29:31;;;;;;;0.70;0.70;;;7.50;99.90;;;;;;5017576;28;20476;-81
2022/12/06 13:32:02;;;;;;;0.70;0.70;;;7.50;99.90;;;;;;5020172;28;20060;-82
2022/12/06 13:34:32;;;;;;;0.70;0.70;;;7.40;99.90;;;;;;5020115;28;20528;-81
2022/12/06 13:36:57;;;;;;;0.70;0.70;;;7.30;99.90;;;;;;5024811;28;21128;-82
2022/12/06 13:39:29;;;;;;;0.70;0.70;;;7.20;99.90;;;;;;5019356;28;20040;-81
2022/12/06 13:42:17;;;;;;;0.70;0.70;;;7.10;99.90;;;;;;5017510;28;20090;-80
2022/12/06 13:44:49;;;;;;;0.70;0.70;;;7.10;99.90;;;;;;5014839;28;20845;-82
2022/12/06 13:47:27;;;;;;;0.70;0.70;;;7.00;99.90;;;;;;5022453;28;20130;-82
2022/12/06 13:49:59;;;;;;;0.70;0.70;;;7.00;99.90;;;;;;5020366;28;20175;-81
2022/12/06 13:52:46;;;;;;;0.70;0.70;;;7.00;99.90;;;;;;5024322;28;20423;-84